Terminal Aerodrome Forecast
Issued by NWS

Home | Current Version | Previous Version | Text Only | Print | Product List | Glossary On
Versions: 1 2 3 4 5 6 7 8 9 10 11 12 13 14 15 16 17 18 19 20 21 22 23 24 25 26 27 28 29 30 31 32 33 34 35 36 37 38 39 40 41
000
FTUS43 KGLD 231746
TAFMCK
TAF
KMCK 231746Z 2318/2418 17012KT P6SM BKN025
     FM231900 17013G19KT P6SM BKN070
     FM240100 16014G21KT P6SM VCTS BKN090CB
     FM240300 15012KT 6SM -SHRA BKN070
     FM240900 13008KT 3SM -SHRA BR BKN003
     FM241300 14007KT 3SM BR BKN001
     FM241600 17005KT P6SM BKN035=

USA.gov is the U.S. government's official web portal to all federal, state and local government web resources and services.